Weather reports worldwide

Advertisment
Braemar, United Kingdom (99089): temperature & dewpoint: 06.11.2019 16:00:00 - 12.11.2019 16:00:00 (GMT)Braemar, United Kingdom (99089): temperature -20cm & temperature -100cm: 06.11.2019 16:00:00 - 12.11.2019 16:00:00 (GMT)Braemar, United Kingdom (99089): precipitation: 06.11.2019 16:00:00 - 12.11.2019 16:00:00 (GMT)
Date & Time tt [°C] td [°C] tt -20cm [°C] tt -100cm [°C] rr [mm]
12.11.2019 16:00:00 4,0 0,3 - - 0,2
12.11.2019 15:00:00 4,1 1,4 - - 0,2
12.11.2019 14:00:00 4,3 2,1 - - 0,6
12.11.2019 13:00:00 4,2 2,3 - - 1,0
12.11.2019 12:00:00 4,2 2,0 - - 0,6
12.11.2019 11:00:00 4,3 2,3 - - 1,0
12.11.2019 10:00:00 5,0 3,4 - - 0,4
12.11.2019 09:00:00 4,8 3,2 2,7 6,2 0,4
12.11.2019 08:00:00 5,0 3,4 - - 0,8
12.11.2019 07:00:00 5,1 3,7 - - 1,8
12.11.2019 06:00:00 4,1 3,0 - - 0,8
12.11.2019 05:00:00 2,8 1,9 - - 7,8
12.11.2019 04:00:00 2,9 0,9 - - 1,0
12.11.2019 03:00:00 2,3 1,1 - - 0,2
12.11.2019 02:00:00 0,7 0,5 - - 0,0
12.11.2019 01:00:00 0,1 0,1 - - 0,0
12.11.2019 00:00:00 -2,1 -2,2 - - 0,0
11.11.2019 23:00:00 -2,8 -3,0 - - 0,0
11.11.2019 22:00:00 -1,6 -1,6 - - 0,0
11.11.2019 21:00:00 -1,1 -1,2 - - 0,0
11.11.2019 20:00:00 -0,7 -0,8 - - 0,0
11.11.2019 19:00:00 0,7 0,6 - - 0,0
11.11.2019 18:00:00 0,6 0,3 - - 0,0
11.11.2019 17:00:00 1,2 0,9 - - 0,2
11.11.2019 16:00:00 1,4 1,0 - - 0,2
11.11.2019 15:00:00 1,3 0,8 - - 0,6
11.11.2019 14:00:00 1,9 1,0 - - 1,0
11.11.2019 13:00:00 2,6 1,9 - - 0,0
11.11.2019 12:00:00 2,1 1,8 - - 0,0
11.11.2019 11:00:00 1,7 1,3 - - 0,0
11.11.2019 10:00:00 0,9 0,8 - - 0,0
11.11.2019 09:00:00 0,7 0,6 2,9 6,5 0,0
11.11.2019 08:00:00 0,7 0,4 - - 0,0
11.11.2019 07:00:00 0,9 0,5 - - 0,0
11.11.2019 06:00:00 1,6 0,3 - - 0,0
11.11.2019 05:00:00 1,9 0,9 - - 0,0
11.11.2019 04:00:00 1,4 0,1 - - 0,2
11.11.2019 03:00:00 1,1 0,4 - - 0,8
11.11.2019 02:00:00 0,6 0,4 - - 0,4
11.11.2019 01:00:00 0,4 0,2 - - 0,2
11.11.2019 00:00:00 0,5 0,0 - - 0,4
10.11.2019 23:00:00 1,1 0,0 - - 0,4
10.11.2019 22:00:00 1,8 -1,2 - - 0,0
10.11.2019 21:00:00 1,4 -1,0 - - 0,0
10.11.2019 20:00:00 1,3 -0,6 - - 0,0
10.11.2019 19:00:00 2,1 -0,8 - - 0,0
10.11.2019 18:00:00 0,5 -1,0 - - 0,0
10.11.2019 17:00:00 0,3 -0,8 - - 0,0
10.11.2019 16:00:00 0,4 -0,5 - - 0,0
10.11.2019 15:00:00 0,8 -0,9 - - 0,0
10.11.2019 14:00:00 0,9 -0,6 - - 0,0
10.11.2019 13:00:00 1,1 -0,9 - - 0,0
10.11.2019 12:00:00 0,2 -1,2 - - 0,0
10.11.2019 11:00:00 2,5 -0,6 - - 0,2
10.11.2019 10:00:00 -1,1 -1,3 - - 0,0
10.11.2019 09:00:00 -2,6 -2,8 3,2 6,7 0,0
10.11.2019 08:00:00 -4,7 -5,5 - - 0,0
10.11.2019 07:00:00 -2,8 -3,2 - - 0,0
10.11.2019 06:00:00 -3,7 -4,0 - - 0,0
10.11.2019 05:00:00 -3,8 -4,0 - - 0,0
10.11.2019 04:00:00 -5,2 -5,7 - - 0,0
10.11.2019 03:00:00 -5,1 -5,6 - - 0,0
10.11.2019 02:00:00 -5,2 -5,7 - - 0,0
10.11.2019 01:00:00 -4,3 -4,7 - - 0,0
10.11.2019 00:00:00 -4,7 -5,3 - - 0,0
09.11.2019 23:00:00 -3,6 -3,9 - - 0,0
09.11.2019 22:00:00 -1,7 -1,7 - - 0,0
09.11.2019 21:00:00 -1,8 -2,3 - - 0,0
09.11.2019 20:00:00 -0,1 -0,2 - - 0,0
09.11.2019 19:00:00 0,0 -0,3 - - 0,0
09.11.2019 18:00:00 0,3 0,0 - - 0,0
09.11.2019 17:00:00 0,5 -0,3 - - 0,0
09.11.2019 16:00:00 1,5 -0,1 - - 0,0
09.11.2019 15:00:00 1,9 0,5 - - 0,0
09.11.2019 14:00:00 1,8 1,0 - - 0,2
09.11.2019 13:00:00 1,3 0,4 - - 0,0
09.11.2019 12:00:00 2,0 -0,2 - - 1,2
09.11.2019 11:00:00 0,1 -0,5 - - 0,0
09.11.2019 10:00:00 -0,5 -0,9 - - 0,0
09.11.2019 09:00:00 -2,4 -2,6 3,7 7,0 0,0
09.11.2019 08:00:00 -3,4 -3,8 - - 0,0
09.11.2019 07:00:00 -4,3 -4,8 - - 0,0
09.11.2019 06:00:00 -4,4 -4,9 - - 0,0
09.11.2019 05:00:00 -5,1 -5,7 - - 0,0
09.11.2019 04:00:00 -5,6 -5,9 - - 0,0
09.11.2019 03:00:00 -6,5 -7,0 - - 0,0
09.11.2019 02:00:00 -6,7 -7,4 - - 0,0
09.11.2019 01:00:00 -6,3 -7,0 - - 0,0
09.11.2019 00:00:00 -5,8 -6,5 - - 0,0
08.11.2019 23:00:00 -6,3 -7,0 - - 0,0
08.11.2019 22:00:00 -5,5 -6,2 - - 0,0
08.11.2019 21:00:00 -4,8 -5,6 - - 0,0
08.11.2019 20:00:00 -3,2 -3,6 - - 0,0
08.11.2019 19:00:00 -3,6 -4,3 - - 0,0
08.11.2019 18:00:00 -2,4 -2,8 - - 0,0
08.11.2019 17:00:00 -1,6 -2,4 - - 0,0
08.11.2019 16:00:00 0,6 -1,4 - - 0,0
08.11.2019 15:00:00 3,8 -0,1 - - 0,0
08.11.2019 14:00:00 2,3 -0,3 - - 0,0
08.11.2019 13:00:00 2,8 -0,1 - - 0,0
08.11.2019 12:00:00 2,2 -0,5 - - 0,0
08.11.2019 11:00:00 1,8 -0,9 - - 0,0
08.11.2019 10:00:00 1,6 -1,3 - - 0,0
08.11.2019 09:00:00 1,3 -0,8 4,7 7,4 0,0
08.11.2019 08:00:00 -1,9 -2,7 - - 0,0
08.11.2019 07:00:00 -1,2 -2,2 - - 0,0
08.11.2019 06:00:00 -1,0 -2,8 - - 0,0
08.11.2019 05:00:00 0,3 -1,6 - - 0,0
08.11.2019 04:00:00 0,6 -2,6 - - 0,0
08.11.2019 03:00:00 1,4 -1,5 - - 0,0
08.11.2019 02:00:00 0,9 -0,7 - - 0,0
08.11.2019 01:00:00 1,2 -0,8 - - 0,0
08.11.2019 00:00:00 2,0 -0,4 - - 0,0
07.11.2019 23:00:00 1,7 -0,7 - - 0,0
07.11.2019 22:00:00 1,8 -0,5 - - 0,0
07.11.2019 21:00:00 1,8 -0,9 - - 0,0
07.11.2019 20:00:00 2,0 -0,8 - - 0,0
07.11.2019 19:00:00 1,9 0,0 - - 0,0
07.11.2019 18:00:00 2,1 0,1 - - 0,0
07.11.2019 17:00:00 2,5 -0,2 - - 0,0
07.11.2019 16:00:00 2,7 -0,2 - - 0,0
07.11.2019 15:00:00 4,1 1,1 - - 0,0
07.11.2019 14:00:00 4,0 1,5 - - 0,0
07.11.2019 13:00:00 3,9 2,1 - - 0,2
07.11.2019 12:00:00 2,6 1,6 - - 0,4
07.11.2019 11:00:00 2,6 1,6 - - 0,8
07.11.2019 10:00:00 2,5 1,6 - - 0,8
07.11.2019 09:00:00 2,5 1,7 5,5 7,5 0,2
07.11.2019 08:00:00 2,2 1,5 - - 0,6
07.11.2019 07:00:00 2,1 1,4 - - 0,8
07.11.2019 06:00:00 2,2 1,5 - - 0,4
07.11.2019 05:00:00 2,5 1,8 - - 0,2
07.11.2019 04:00:00 1,7 1,1 - - 0,6
07.11.2019 03:00:00 1,6 1,0 - - 0,8
07.11.2019 02:00:00 0,7 0,3 - - 0,8
07.11.2019 01:00:00 1,1 0,7 - - 1,0
07.11.2019 00:00:00 1,4 0,7 - - 0,6
06.11.2019 23:00:00 1,6 1,1 - - 0,2
06.11.2019 22:00:00 1,8 1,5 - - 0,0
06.11.2019 21:00:00 2,0 1,5 - - 0,0
06.11.2019 20:00:00 2,1 1,6 - - 0,2
06.11.2019 19:00:00 2,2 1,7 - - 0,0
06.11.2019 18:00:00 1,6 1,4 - - 0,0
06.11.2019 17:00:00 0,9 0,3 - - 0,0
06.11.2019 16:00:00 1,7 0,3 - - 0,0

tt = temperature
td = dewpoint
tt -20cm = temperature -20cm
tt -100cm = temperature -100cm
rr = precipitation

Next stations